Time;durP1;ratioP1;P1;durP2;ratioP2;P2;SDS_P1;SDS_P2;PMS_P1;PMS_P2;Temp;Humidity;BMP_temperature;BMP_pressure;BME280_temperature;BME280_humidity;BME280_pressure;Samples;Min_cycle;Max_cycle;Signal;HPM_P1;HPM_P2
2022/06/30 00:00:41;;;;;;;11.20;3.28;;;16.20;99.90;;;;;;5093196;28;20030;-56
2022/06/30 00:03:07;;;;;;;12.02;3.45;;;16.10;99.90;;;;;;5093420;28;20040;-57
2022/06/30 00:05:33;;;;;;;10.25;3.30;;;16.10;99.90;;;;;;5095076;28;20031;-57
2022/06/30 00:07:59;;;;;;;10.20;3.50;;;16.30;99.90;;;;;;5092814;28;20408;-52
2022/06/30 00:10:24;;;;;;;13.32;4.15;;;16.50;99.90;;;;;;5092904;28;20027;-53
2022/06/30 00:12:50;;;;;;;11.35;3.42;;;15.90;99.90;;;;;;5092949;28;20442;-57
2022/06/30 00:15:16;;;;;;;9.52;3.50;;;16.00;99.90;;;;;;5093070;28;20035;-56
2022/06/30 00:17:42;;;;;;;11.50;3.50;;;16.20;99.90;;;;;;5094311;28;20016;-56
2022/06/30 00:20:09;;;;;;;10.00;3.40;;;16.00;99.90;;;;;;5092016;28;20093;-55
2022/06/30 00:22:35;;;;;;;9.38;3.50;;;15.90;99.90;;;;;;5091242;28;20028;-57
2022/06/30 00:25:01;;;;;;;9.25;3.53;;;16.40;99.90;;;;;;5092576;28;20390;-56
2022/06/30 00:27:27;;;;;;;12.50;3.78;;;16.30;99.90;;;;;;5092371;28;20031;-54
2022/06/30 00:29:52;;;;;;;11.20;3.63;;;16.10;99.90;;;;;;5091936;28;20024;-57
2022/06/30 00:32:18;;;;;;;12.55;3.70;;;16.20;99.90;;;;;;5092141;28;20035;-53
2022/06/30 00:34:44;;;;;;;13.30;3.97;;;16.20;99.90;;;;;;5091109;28;20028;-56
2022/06/30 00:37:09;;;;;;;11.20;3.58;;;16.20;99.90;;;;;;5092311;28;20037;-57
2022/06/30 00:39:35;;;;;;;13.40;4.07;;;16.30;99.90;;;;;;5092474;28;20031;-57
2022/06/30 00:42:02;;;;;;;11.40;3.65;;;16.20;99.90;;;;;;5091836;28;20127;-57
2022/06/30 00:44:27;;;;;;;7.53;3.00;;;16.30;99.90;;;;;;5094574;28;20043;-55
2022/06/30 00:46:53;;;;;;;11.15;3.35;;;16.30;99.90;;;;;;5092196;28;20020;-56
2022/06/30 00:49:20;;;;;;;10.60;3.53;;;16.10;99.90;;;;;;5092133;28;20035;-56
2022/06/30 00:51:46;;;;;;;13.10;3.50;;;16.10;99.90;;;;;;5091577;28;20050;-56
2022/06/30 00:54:12;;;;;;;9.75;3.83;;;16.10;99.90;;;;;;5092235;28;20035;-57
2022/06/30 00:56:42;;;;;;;10.90;3.47;;;16.40;99.90;;;;;;5094199;28;20020;-57
2022/06/30 00:59:12;;;;;;;8.40;3.42;;;16.30;99.90;;;;;;5091326;28;20036;-57
2022/06/30 01:01:38;;;;;;;11.40;4.03;;;16.10;99.90;;;;;;5090412;28;20020;-56
2022/06/30 01:04:07;;;;;;;9.85;3.83;;;16.20;99.90;;;;;;5091866;28;20035;-57
2022/06/30 01:06:33;;;;;;;9.80;3.83;;;16.10;99.90;;;;;;5092202;28;20020;-53
2022/06/30 01:08:59;;;;;;;9.35;3.63;;;16.10;99.90;;;;;;5091510;28;20075;-56
2022/06/30 01:14:09;;;;;;;9.88;3.53;;;16.10;99.90;;;;;;5091081;28;20047;-56
2022/06/30 01:16:39;;;;;;;10.02;3.45;;;16.10;99.90;;;;;;5091634;28;20028;-57
2022/06/30 01:19:06;;;;;;;9.65;3.53;;;15.80;99.90;;;;;;5091494;28;20036;-56
2022/06/30 01:21:31;;;;;;;9.57;3.30;;;16.20;99.90;;;;;;5091614;28;20052;-54
2022/06/30 01:23:58;;;;;;;12.20;3.50;;;16.20;99.90;;;;;;5091582;28;20422;-57
2022/06/30 01:26:25;;;;;;;9.48;3.45;;;15.80;99.90;;;;;;5093471;28;20423;-56
2022/06/30 01:28:51;;;;;;;11.73;3.50;;;15.90;99.90;;;;;;5091410;28;20036;-57
2022/06/30 01:31:17;;;;;;;12.80;3.75;;;15.90;99.90;;;;;;5091525;28;20048;-57
2022/06/30 01:33:44;;;;;;;9.98;3.45;;;16.00;99.90;;;;;;5091081;28;20024;-56
2022/06/30 01:36:10;;;;;;;11.50;3.92;;;15.70;99.90;;;;;;5090369;28;20559;-56
2022/06/30 01:38:36;;;;;;;10.43;3.70;;;15.80;99.90;;;;;;5093049;28;20099;-57
2022/06/30 01:41:02;;;;;;;11.35;4.13;;;15.50;99.90;;;;;;5089382;28;20550;-55
2022/06/30 01:43:28;;;;;;;12.30;3.80;;;15.80;99.90;;;;;;5091031;28;20385;-56
2022/06/30 01:45:53;;;;;;;11.30;3.53;;;15.90;99.90;;;;;;5091039;28;20030;-55
2022/06/30 01:48:19;;;;;;;10.30;3.53;;;15.80;99.90;;;;;;5091337;28;20031;-56
2022/06/30 01:50:45;;;;;;;10.30;3.60;;;15.70;99.90;;;;;;5092411;28;20028;-57
2022/06/30 01:53:11;;;;;;;12.82;3.88;;;15.50;99.90;;;;;;5091341;28;20035;-57
2022/06/30 01:55:36;;;;;;;9.43;3.80;;;15.90;99.90;;;;;;5091248;28;20020;-57
2022/06/30 01:58:03;;;;;;;9.55;3.90;;;15.80;99.90;;;;;;5090819;28;20038;-57
2022/06/30 02:00:28;;;;;;;10.57;3.67;;;15.90;99.90;;;;;;5091064;28;20500;-57
2022/06/30 02:02:56;;;;;;;10.65;4.03;;;15.70;99.90;;;;;;5090880;28;20035;-57
2022/06/30 02:05:23;;;;;;;11.40;3.80;;;16.00;99.90;;;;;;5092387;28;20024;-56
2022/06/30 02:07:48;;;;;;;9.27;3.65;;;15.90;99.90;;;;;;5090283;28;20032;-54
2022/06/30 02:10:17;;;;;;;10.30;3.88;;;16.10;99.90;;;;;;5090602;28;20026;-57
2022/06/30 02:12:46;;;;;;;8.05;3.55;;;15.60;99.90;;;;;;5090759;28;20036;-56
2022/06/30 02:15:38;;;;;;;9.65;3.90;;;15.60;99.90;;;;;;5089271;28;20066;-57
2022/06/30 02:18:08;;;;;;;9.43;3.90;;;15.90;99.90;;;;;;5088555;28;20547;-57
2022/06/30 02:20:34;;;;;;;10.70;3.95;;;15.80;99.90;;;;;;5088080;28;20481;-56
2022/06/30 02:23:03;;;;;;;10.77;3.97;;;15.90;99.90;;;;;;5090307;28;20067;-56
2022/06/30 02:25:31;;;;;;;10.48;4.03;;;16.00;99.90;;;;;;5090424;28;20020;-55
2022/06/30 02:27:57;;;;;;;10.75;3.83;;;16.00;99.90;;;;;;5090433;28;20138;-57
2022/06/30 02:30:24;;;;;;;9.20;4.15;;;15.80;99.90;;;;;;5089129;28;20095;-56
2022/06/30 02:32:50;;;;;;;9.80;3.67;;;15.80;99.90;;;;;;5090533;28;20546;-56
2022/06/30 02:35:17;;;;;;;12.95;3.70;;;15.70;99.90;;;;;;5092392;28;20067;-56
2022/06/30 02:37:43;;;;;;;9.38;3.72;;;15.80;99.90;;;;;;5089812;28;20035;-54
2022/06/30 02:40:09;;;;;;;9.55;3.50;;;16.00;99.90;;;;;;5090260;28;20024;-56
2022/06/30 02:42:35;;;;;;;8.43;3.40;;;15.80;99.90;;;;;;5090179;28;20040;-57
2022/06/30 02:45:01;;;;;;;7.07;3.22;;;15.40;99.90;;;;;;5090235;28;20031;-56
2022/06/30 02:47:31;;;;;;;13.38;3.95;;;15.90;99.90;;;;;;5092020;28;20061;-57
2022/06/30 02:49:57;;;;;;;9.77;4.18;;;15.70;99.90;;;;;;5090159;28;20043;-57
2022/06/30 02:52:22;;;;;;;10.95;3.95;;;15.60;99.90;;;;;;5089614;28;20028;-55
2022/06/30 02:54:48;;;;;;;11.43;4.13;;;15.80;99.90;;;;;;5088676;28;20031;-56
2022/06/30 02:57:14;;;;;;;12.02;3.90;;;15.60;99.90;;;;;;5088895;28;20021;-52
2022/06/30 02:59:40;;;;;;;5.80;3.30;;;15.40;99.90;;;;;;5091543;28;20073;-57
2022/06/30 03:02:05;;;;;;;11.32;3.90;;;16.00;99.90;;;;;;5090582;28;20506;-56
2022/06/30 03:04:31;;;;;;;15.90;4.10;;;15.70;99.90;;;;;;5089936;28;20107;-56
2022/06/30 03:06:57;;;;;;;9.23;3.47;;;15.70;99.90;;;;;;5089428;28;20058;-55
2022/06/30 03:09:23;;;;;;;13.35;3.45;;;15.60;99.90;;;;;;5088989;28;20028;-56
2022/06/30 03:11:49;;;;;;;9.23;3.08;;;15.40;99.90;;;;;;5090411;28;20099;-57
2022/06/30 03:14:15;;;;;;;9.73;3.40;;;15.40;99.90;;;;;;5091567;28;20100;-57
2022/06/30 03:16:41;;;;;;;7.45;2.88;;;15.40;99.90;;;;;;5093377;28;20089;-56
2022/06/30 03:19:06;;;;;;;6.63;2.95;;;15.80;99.90;;;;;;5093908;28;20027;-57
2022/06/30 03:21:32;;;;;;;6.13;2.45;;;15.50;99.90;;;;;;5093885;28;20032;-55
2022/06/30 03:23:58;;;;;;;9.10;2.55;;;15.20;99.90;;;;;;5093915;28;20497;-55
2022/06/30 03:26:23;;;;;;;7.25;2.60;;;15.50;99.90;;;;;;5095771;28;20020;-57
2022/06/30 03:28:49;;;;;;;8.77;2.92;;;15.90;99.90;;;;;;5094016;28;20032;-56
2022/06/30 03:31:15;;;;;;;8.38;2.88;;;15.50;99.90;;;;;;5092514;28;20021;-57
2022/06/30 03:33:41;;;;;;;7.30;2.67;;;15.40;99.90;;;;;;5092195;28;20028;-57
2022/06/30 03:36:07;;;;;;;7.60;3.05;;;15.80;99.90;;;;;;5092036;28;20024;-57
2022/06/30 03:38:32;;;;;;;8.93;2.80;;;15.50;99.90;;;;;;5095562;28;20039;-57
2022/06/30 03:40:58;;;;;;;7.72;3.20;;;15.70;99.90;;;;;;5093350;28;20031;-57
2022/06/30 03:43:24;;;;;;;9.25;3.00;;;15.40;99.90;;;;;;5093750;28;20056;-57
2022/06/30 03:45:49;;;;;;;7.85;2.85;;;15.30;99.90;;;;;;5093092;28;20028;-56
2022/06/30 03:48:15;;;;;;;9.00;3.35;;;15.40;99.90;;;;;;5093880;28;20073;-57
2022/06/30 03:50:41;;;;;;;6.68;3.28;;;15.40;99.90;;;;;;5094615;28;20027;-57
2022/06/30 03:53:06;;;;;;;10.40;3.67;;;15.40;99.90;;;;;;5093927;28;20023;-54
2022/06/30 03:55:33;;;;;;;8.77;3.65;;;15.10;99.90;;;;;;5093242;28;20423;-56
2022/06/30 03:57:59;;;;;;;9.45;3.47;;;15.30;99.90;;;;;;5093603;28;20070;-56
2022/06/30 04:00:25;;;;;;;9.38;3.90;;;15.50;99.90;;;;;;5093117;28;20039;-57
2022/06/30 04:02:51;;;;;;;8.30;3.92;;;15.50;99.90;;;;;;5092188;28;20493;-57
2022/06/30 04:05:17;;;;;;;10.82;4.05;;;15.30;99.90;;;;;;5094635;28;20012;-57
2022/06/30 04:07:44;;;;;;;10.32;4.50;;;15.10;99.90;;;;;;5092745;28;20032;-55
2022/06/30 04:10:12;;;;;;;10.45;4.28;;;15.00;99.90;;;;;;5092859;28;20505;-57
2022/06/30 04:12:38;;;;;;;12.20;4.47;;;15.60;99.90;;;;;;5091730;28;20533;-56
2022/06/30 04:15:05;;;;;;;11.68;4.85;;;15.00;99.90;;;;;;5092031;28;20504;-57
2022/06/30 04:17:33;;;;;;;10.82;4.05;;;15.10;99.90;;;;;;5094251;28;20488;-57
2022/06/30 04:20:00;;;;;;;9.85;4.18;;;15.30;99.90;;;;;;5092802;28;20035;-57
2022/06/30 04:22:26;;;;;;;9.63;4.20;;;15.40;99.90;;;;;;5092548;28;20089;-54
2022/06/30 04:24:51;;;;;;;9.70;3.72;;;15.10;99.90;;;;;;5091261;28;20036;-56
2022/06/30 04:27:17;;;;;;;10.13;3.45;;;15.50;99.90;;;;;;5090555;28;20103;-56
2022/06/30 04:29:43;;;;;;;10.02;3.30;;;15.40;99.90;;;;;;5094191;28;20032;-57
2022/06/30 04:34:53;;;;;;;7.40;2.88;;;15.70;99.90;;;;;;5092559;28;20088;-56
2022/06/30 04:37:19;;;;;;;10.50;3.30;;;15.40;99.90;;;;;;5092413;28;20430;-57
2022/06/30 04:39:45;;;;;;;7.50;2.85;;;15.30;99.90;;;;;;5092405;28;20035;-57
2022/06/30 04:42:10;;;;;;;10.13;2.72;;;15.10;99.90;;;;;;5092366;28;20558;-56
2022/06/30 04:44:36;;;;;;;10.75;3.83;;;15.60;99.90;;;;;;5094445;28;20024;-56
2022/06/30 04:47:02;;;;;;;10.70;3.45;;;15.40;99.90;;;;;;5091848;28;20036;-57
2022/06/30 04:49:28;;;;;;;10.27;3.28;;;15.40;99.90;;;;;;5092348;28;20035;-54
2022/06/30 04:51:53;;;;;;;8.10;2.55;;;15.40;99.90;;;;;;5090911;28;20035;-54
2022/06/30 04:54:19;;;;;;;5.30;2.53;;;15.50;99.90;;;;;;5091055;28;20093;-57
2022/06/30 04:56:44;;;;;;;9.63;2.67;;;15.60;99.90;;;;;;5093293;28;20028;-56
2022/06/30 04:59:10;;;;;;;6.07;2.60;;;15.20;99.90;;;;;;5092965;28;20085;-56
2022/06/30 05:01:36;;;;;;;7.13;2.38;;;15.10;99.90;;;;;;5091582;28;20034;-56
2022/06/30 05:04:02;;;;;;;7.55;2.45;;;15.10;99.90;;;;;;5091912;28;20061;-57
2022/06/30 05:06:27;;;;;;;7.63;2.60;;;15.10;99.90;;;;;;5090988;28;20021;-57
2022/06/30 05:08:53;;;;;;;6.10;2.60;;;15.10;99.90;;;;;;5091815;28;20028;-56
2022/06/30 05:11:19;;;;;;;7.85;2.63;;;15.10;99.90;;;;;;5093963;28;20576;-57
2022/06/30 05:13:44;;;;;;;8.10;2.80;;;15.00;99.90;;;;;;5091909;28;20028;-56
2022/06/30 05:16:10;;;;;;;7.43;2.83;;;14.90;99.90;;;;;;5091234;28;20415;-56
2022/06/30 05:18:36;;;;;;;11.27;3.45;;;14.90;99.90;;;;;;5091878;28;20485;-57
2022/06/30 05:21:02;;;;;;;10.95;3.58;;;14.90;99.90;;;;;;5091627;28;20027;-57
2022/06/30 05:23:27;;;;;;;10.68;3.28;;;14.90;99.90;;;;;;5093901;28;20077;-55
2022/06/30 05:28:37;;;;;;;;;;;15.00;99.90;;;;;;5091846;28;20035;-54
2022/06/30 05:31:03;;;;;;;6.90;2.75;;;15.00;99.90;;;;;;5090101;28;19908;-57
2022/06/30 05:33:28;;;;;;;12.30;3.67;;;15.00;99.90;;;;;;5089897;28;21798;-58
2022/06/30 05:35:54;;;;;;;8.73;3.05;;;15.00;99.90;;;;;;5091429;28;20059;-57
2022/06/30 05:38:20;;;;;;;11.15;3.20;;;15.00;99.90;;;;;;5093337;28;20093;-56
2022/06/30 05:40:46;;;;;;;11.48;3.45;;;14.90;99.90;;;;;;5091286;28;20096;-57
2022/06/30 05:43:14;;;;;;;10.85;3.45;;;15.00;99.90;;;;;;5091246;28;20051;-56
2022/06/30 05:45:41;;;;;;;9.52;3.22;;;15.00;99.90;;;;;;5089422;28;20024;-57
2022/06/30 05:48:07;;;;;;;9.38;3.45;;;15.10;99.90;;;;;;5075036;28;20024;-57
2022/06/30 05:50:32;;;;;;;8.32;3.10;;;15.10;99.90;;;;;;5093103;28;20393;-57
2022/06/30 05:52:58;;;;;;;11.68;3.13;;;15.10;99.90;;;;;;5090933;28;20043;-54
2022/06/30 05:55:24;;;;;;;7.55;2.92;;;15.10;99.90;;;;;;5090681;28;20030;-57
2022/06/30 05:57:58;;;;;;;8.02;3.28;;;15.10;99.90;;;;;;5091120;28;20504;-56
2022/06/30 06:00:27;;;;;;;10.27;3.13;;;15.20;99.90;;;;;;5090625;28;20488;-56
2022/06/30 06:02:53;;;;;;;9.73;3.67;;;15.20;99.90;;;;;;5090696;28;20446;-56
2022/06/30 06:05:20;;;;;;;7.55;3.15;;;15.20;99.90;;;;;;5091647;28;20085;-56
2022/06/30 06:07:45;;;;;;;8.65;3.08;;;15.20;99.90;;;;;;5090570;28;20051;-56
2022/06/30 06:10:15;;;;;;;9.10;3.70;;;15.20;99.90;;;;;;5089408;28;20028;-56
2022/06/30 06:12:43;;;;;;;6.85;3.03;;;15.20;99.90;;;;;;5089125;28;20063;-53
2022/06/30 06:15:14;;;;;;;9.10;3.10;;;15.30;99.90;;;;;;5073459;28;20025;-53
2022/06/30 06:17:44;;;;;;;9.27;2.90;;;15.30;99.90;;;;;;5088292;28;20039;-53
2022/06/30 06:20:12;;;;;;;9.50;3.00;;;15.20;99.90;;;;;;5091310;28;20122;-57
2022/06/30 06:22:38;;;;;;;8.13;3.10;;;15.30;99.90;;;;;;5090231;28;20044;-57
2022/06/30 06:25:04;;;;;;;9.88;3.08;;;15.30;99.90;;;;;;5088793;28;20404;-53
2022/06/30 06:27:30;;;;;;;8.93;3.25;;;15.40;99.90;;;;;;5090183;28;20055;-56
2022/06/30 06:29:56;;;;;;;7.70;3.15;;;15.40;99.90;;;;;;5089229;28;20048;-57
2022/06/30 06:32:22;;;;;;;9.13;3.17;;;15.40;99.90;;;;;;5092372;28;20478;-56
2022/06/30 06:34:48;;;;;;;9.50;3.08;;;15.40;99.90;;;;;;5090048;28;20459;-56
2022/06/30 06:37:14;;;;;;;6.80;3.17;;;15.30;99.90;;;;;;5090141;28;20032;-56
2022/06/30 06:39:39;;;;;;;9.68;3.35;;;15.30;99.90;;;;;;5089704;28;20119;-55
2022/06/30 06:42:05;;;;;;;10.63;3.25;;;15.30;99.90;;;;;;5089906;28;20185;-56
2022/06/30 06:44:31;;;;;;;7.60;3.25;;;15.30;99.90;;;;;;5091045;28;20035;-57
2022/06/30 06:46:57;;;;;;;10.63;3.70;;;15.30;99.90;;;;;;5089492;28;20047;-57
2022/06/30 06:49:23;;;;;;;8.15;3.55;;;15.40;99.90;;;;;;5072223;28;20024;-57
2022/06/30 06:51:48;;;;;;;9.80;3.58;;;15.40;99.90;;;;;;5088238;28;20039;-55
2022/06/30 06:54:14;;;;;;;9.60;3.50;;;15.30;99.90;;;;;;5089467;28;20027;-56
2022/06/30 06:56:40;;;;;;;10.18;3.60;;;15.40;99.90;;;;;;5091390;28;20507;-60
2022/06/30 06:59:05;;;;;;;4.18;1.90;;;15.40;99.90;;;;;;5089870;28;20039;-57
2022/06/30 07:01:31;;;;;;;5.47;2.35;;;16.90;99.90;;;;;;5089932;28;20110;-55
2022/06/30 07:03:57;;;;;;;5.35;2.30;;;17.80;99.90;;;;;;5090270;28;20036;-56
2022/06/30 07:06:23;;;;;;;5.43;2.22;;;18.20;99.90;;;;;;5090055;28;20017;-58
2022/06/30 07:08:49;;;;;;;7.50;2.70;;;18.20;99.90;;;;;;5089556;28;20035;-57
2022/06/30 07:11:15;;;;;;;6.45;2.20;;;18.30;99.90;;;;;;5090829;28;20444;-57
2022/06/30 07:13:41;;;;;;;7.95;2.80;;;18.50;99.90;;;;;;5088702;28;20020;-57
2022/06/30 07:16:07;;;;;;;5.57;2.40;;;18.70;99.90;;;;;;5089099;28;20108;-57
2022/06/30 07:18:32;;;;;;;6.75;2.60;;;18.70;99.90;;;;;;5089838;28;20108;-58
2022/06/30 07:20:58;;;;;;;6.32;2.50;;;18.70;99.90;;;;;;5089406;28;20455;-58
2022/06/30 07:23:24;;;;;;;5.07;2.40;;;17.30;99.90;;;;;;5091575;28;20131;-56
2022/06/30 07:25:50;;;;;;;7.38;2.70;;;16.50;99.90;;;;;;5089665;28;20027;-58
2022/06/30 07:28:16;;;;;;;6.05;2.80;;;16.20;99.90;;;;;;5087722;28;20466;-58
2022/06/30 07:30:41;;;;;;;4.10;2.30;;;16.00;99.90;;;;;;5088472;28;20028;-58
2022/06/30 07:33:07;;;;;;;5.78;2.80;;;15.80;99.90;;;;;;5089891;28;20024;-58
2022/06/30 07:35:33;;;;;;;6.15;2.60;;;15.90;99.90;;;;;;5091641;28;20052;-58
2022/06/30 07:37:58;;;;;;;7.18;2.92;;;15.80;99.90;;;;;;5089517;28;20393;-58
2022/06/30 07:40:24;;;;;;;7.18;2.80;;;15.70;99.90;;;;;;5089589;28;20028;-59
2022/06/30 07:42:51;;;;;;;7.25;2.90;;;15.70;99.90;;;;;;5089362;28;20055;-58
2022/06/30 07:45:17;;;;;;;6.95;3.10;;;15.80;99.90;;;;;;5089467;28;20036;-58
2022/06/30 07:47:44;;;;;;;9.88;3.00;;;15.80;99.90;;;;;;5089646;28;20024;-58
2022/06/30 07:50:10;;;;;;;6.20;3.10;;;15.70;99.90;;;;;;5090266;28;20038;-58
2022/06/30 07:52:36;;;;;;;6.82;2.97;;;15.70;99.90;;;;;;5089332;28;20032;-58
2022/06/30 07:55:03;;;;;;;7.22;2.90;;;15.80;99.90;;;;;;5089090;28;20027;-57
2022/06/30 07:57:29;;;;;;;6.85;3.08;;;15.80;99.90;;;;;;5089797;28;20081;-58
2022/06/30 07:59:55;;;;;;;8.80;3.70;;;15.70;99.90;;;;;;5089418;28;20029;-58
2022/06/30 08:02:21;;;;;;;7.97;3.90;;;15.70;99.90;;;;;;5092999;28;20039;-58
2022/06/30 08:04:47;;;;;;;6.25;4.03;;;15.80;99.90;;;;;;5092703;28;20032;-58
2022/06/30 08:07:12;;;;;;;8.30;3.50;;;15.90;99.90;;;;;;5091766;28;20039;-58
2022/06/30 08:09:38;;;;;;;7.65;3.33;;;15.80;99.90;;;;;;5091080;28;20506;-58
2022/06/30 08:12:06;;;;;;;8.75;3.35;;;15.90;99.90;;;;;;5093212;28;20028;-58
2022/06/30 08:14:32;;;;;;;8.45;3.55;;;15.90;99.90;;;;;;5095067;28;20032;-58
2022/06/30 08:16:59;;;;;;;5.88;3.42;;;15.90;99.90;;;;;;5092671;28;20373;-58
2022/06/30 08:19:24;;;;;;;8.73;3.50;;;15.90;99.90;;;;;;5092799;28;20069;-58
2022/06/30 08:21:50;;;;;;;9.70;3.58;;;15.90;99.90;;;;;;5092564;28;20032;-58
2022/06/30 08:24:16;;;;;;;9.27;3.70;;;16.00;99.90;;;;;;5092844;28;20047;-58
2022/06/30 08:26:42;;;;;;;10.07;3.53;;;16.00;99.90;;;;;;5094141;28;20238;-58
2022/06/30 08:29:08;;;;;;;9.63;3.63;;;16.10;99.90;;;;;;5093224;28;20032;-58
2022/06/30 08:31:35;;;;;;;7.15;3.55;;;15.90;99.90;;;;;;5092960;28;20020;-58
2022/06/30 08:34:02;;;;;;;6.53;3.42;;;16.00;99.90;;;;;;5092549;28;20373;-58
2022/06/30 08:36:28;;;;;;;7.85;3.60;;;16.10;99.90;;;;;;5092383;28;20549;-58
2022/06/30 08:38:54;;;;;;;9.93;3.47;;;16.00;99.90;;;;;;5092202;28;20099;-58
2022/06/30 08:44:06;;;;;;;5.80;3.33;;;16.20;99.90;;;;;;5091256;28;20089;-58
2022/06/30 08:46:33;;;;;;;6.95;3.60;;;16.20;99.90;;;;;;5090745;28;20107;-58
2022/06/30 08:48:59;;;;;;;8.10;3.63;;;16.10;99.90;;;;;;5090569;28;20051;-58
2022/06/30 08:51:28;;;;;;;7.47;3.30;;;16.20;99.90;;;;;;5092081;28;20023;-58
2022/06/30 08:54:01;;;;;;;9.38;3.40;;;16.20;99.90;;;;;;5091892;28;20035;-58
2022/06/30 08:56:34;;;;;;;5.17;3.03;;;16.30;99.90;;;;;;5094046;28;20043;-59
2022/06/30 08:59:03;;;;;;;7.53;3.33;;;16.40;99.90;;;;;;5092353;28;20404;-58
2022/06/30 09:01:29;;;;;;;7.35;3.60;;;16.40;99.90;;;;;;5091986;28;20551;-58
2022/06/30 09:03:56;;;;;;;8.15;3.25;;;16.40;99.90;;;;;;5091706;28;20115;-58
2022/06/30 09:06:22;;;;;;;8.13;3.60;;;16.40;99.90;;;;;;5091984;28;20051;-58
2022/06/30 09:08:48;;;;;;;9.80;3.85;;;16.50;99.90;;;;;;5092606;28;20081;-58
2022/06/30 09:11:15;;;;;;;8.68;3.88;;;16.40;99.90;;;;;;5093120;28;20055;-58
2022/06/30 09:13:48;;;;;;;8.30;3.53;;;16.50;99.90;;;;;;5091323;28;20054;-58
2022/06/30 09:16:14;;;;;;;7.95;4.32;;;16.50;99.90;;;;;;5091539;28;20504;-58
2022/06/30 09:18:41;;;;;;;7.60;4.32;;;16.50;99.90;;;;;;5091571;28;20104;-58
2022/06/30 09:21:16;;;;;;;8.68;4.03;;;16.70;99.90;;;;;;5091771;28;20029;-58
2022/06/30 09:23:47;;;;;;;6.32;4.15;;;16.80;99.90;;;;;;5089430;28;20043;-58
2022/06/30 09:26:21;;;;;;;8.48;4.07;;;16.80;99.90;;;;;;5092479;28;20024;-58
2022/06/30 09:28:50;;;;;;;7.47;4.10;;;16.90;99.90;;;;;;5089864;28;20122;-58
2022/06/30 09:31:32;;;;;;;8.68;3.97;;;17.00;99.90;;;;;;5091800;28;20107;-58
2022/06/30 09:34:16;;;;;;;6.68;3.70;;;17.10;99.90;;;;;;5091236;28;20165;-58
2022/06/30 09:36:42;;;;;;;;;;;17.00;99.90;;;;;;5091320;28;20484;-58
2022/06/30 09:39:11;;;;;;;8.82;3.53;;;17.00;99.90;;;;;;5091523;28;20050;-58
2022/06/30 09:41:41;;;;;;;7.03;4.00;;;17.00;99.90;;;;;;5088919;28;20054;-58
2022/06/30 09:44:28;;;;;;;7.07;3.72;;;17.10;99.90;;;;;;5090235;28;20092;-58
2022/06/30 09:47:15;;;;;;;8.85;4.03;;;17.20;99.90;;;;;;5090660;28;20509;-58
2022/06/30 09:49:42;;;;;;;8.50;4.00;;;17.30;99.90;;;;;;5091285;28;20032;-58
2022/06/30 09:52:19;;;;;;;9.77;4.13;;;17.40;99.90;;;;;;5090677;28;20024;-58
2022/06/30 09:54:59;;;;;;;8.57;4.25;;;17.60;99.90;;;;;;5090938;28;20024;-58
2022/06/30 09:57:41;;;;;;;10.27;4.10;;;17.50;99.90;;;;;;5091130;28;20111;-58
2022/06/30 10:00:08;;;;;;;7.70;3.78;;;17.50;99.90;;;;;;5090992;28;20029;-58
2022/06/30 10:02:44;;;;;;;7.40;3.30;;;17.60;99.90;;;;;;5092690;28;20426;-58
2022/06/30 10:05:10;;;;;;;8.18;3.53;;;17.60;99.90;;;;;;5090086;28;20096;-58
2022/06/30 10:07:38;;;;;;;7.05;3.38;;;17.60;99.90;;;;;;5088897;28;20032;-58
2022/06/30 10:10:09;;;;;;;9.63;3.53;;;17.70;99.90;;;;;;5090907;28;20036;-58
2022/06/30 10:12:36;;;;;;;9.05;3.30;;;17.70;99.90;;;;;;5090690;28;20590;-59
2022/06/30 10:15:02;;;;;;;6.60;3.13;;;17.80;99.90;;;;;;5090547;28;20071;-58
2022/06/30 10:17:31;;;;;;;5.95;3.00;;;18.00;99.90;;;;;;5092468;28;20020;-58
2022/06/30 10:19:57;;;;;;;7.65;2.92;;;17.80;99.90;;;;;;5090579;28;20036;-57
2022/06/30 10:22:25;;;;;;;7.20;3.05;;;17.90;99.90;;;;;;5090126;28;20065;-58
2022/06/30 10:24:52;;;;;;;10.95;2.97;;;17.80;99.90;;;;;;5089714;28;20039;-58
2022/06/30 10:27:20;;;;;;;8.88;2.50;;;17.90;99.90;;;;;;5090564;28;20027;-58
2022/06/30 10:30:02;;;;;;;9.77;2.83;;;17.50;99.90;;;;;;5091925;28;20038;-58
2022/06/30 10:32:41;;;;;;;8.70;2.28;;;17.60;99.90;;;;;;5091265;28;20400;-58
2022/06/30 10:35:14;;;;;;;8.07;2.58;;;17.50;99.90;;;;;;5090338;28;20047;-58
2022/06/30 10:37:47;;;;;;;6.57;2.13;;;17.60;99.90;;;;;;5090126;28;20026;-58
2022/06/30 10:40:31;;;;;;;8.45;2.30;;;17.60;99.90;;;;;;5090642;28;20282;-58
2022/06/30 10:42:58;;;;;;;5.72;2.10;;;17.40;99.90;;;;;;5088841;28;20079;-58
2022/06/30 10:45:31;;;;;;;6.47;2.10;;;17.50;99.90;;;;;;5088556;28;20056;-58
2022/06/30 10:48:10;;;;;;;8.20;2.50;;;17.60;99.90;;;;;;5090157;28;20024;-58
2022/06/30 10:50:43;;;;;;;7.45;2.17;;;17.60;99.90;;;;;;5087505;28;20451;-59
2022/06/30 10:53:14;;;;;;;8.95;2.22;;;17.50;99.90;;;;;;5089321;28;20111;-58
2022/06/30 10:55:43;;;;;;;6.10;1.90;;;17.60;99.90;;;;;;5089963;28;20024;-58
2022/06/30 10:58:09;;;;;;;7.22;2.08;;;17.60;99.90;;;;;;5089759;28;20034;-58
2022/06/30 11:00:45;;;;;;;8.20;2.28;;;17.70;99.90;;;;;;5090413;28;20469;-58
2022/06/30 11:03:29;;;;;;;6.55;2.10;;;17.50;99.90;;;;;;5074581;28;20024;-58
2022/06/30 11:06:01;;;;;;;6.47;2.00;;;17.50;99.90;;;;;;5089993;28;20028;-58
2022/06/30 11:08:36;;;;;;;8.65;2.17;;;17.60;99.90;;;;;;5091929;28;20027;-58
2022/06/30 11:11:23;;;;;;;9.57;2.33;;;17.60;99.90;;;;;;5089822;28;20028;-58
2022/06/30 11:13:52;;;;;;;8.10;2.17;;;17.60;99.90;;;;;;5089719;28;20036;-58
2022/06/30 11:16:19;;;;;;;6.55;2.20;;;17.60;99.90;;;;;;5089898;28;20045;-58
2022/06/30 11:18:46;;;;;;;10.35;2.58;;;17.70;99.90;;;;;;5089502;28;20032;-58
2022/06/30 11:21:12;;;;;;;8.25;2.50;;;17.60;99.90;;;;;;5088491;28;20057;-58
2022/06/30 11:23:46;;;;;;;7.57;1.90;;;17.60;99.90;;;;;;5091660;28;20114;-59
2022/06/30 11:29:00;;;;;;;7.57;1.90;;;17.60;99.90;;;;;;5089763;28;20524;-59
2022/06/30 11:31:35;;;;;;;4.65;1.70;;;17.80;99.90;;;;;;5089675;28;20059;-58
2022/06/30 11:34:03;;;;;;;13.30;2.17;;;17.80;99.90;;;;;;5089608;28;20500;-58
2022/06/30 11:36:29;;;;;;;9.77;2.00;;;17.60;99.90;;;;;;5091365;28;20386;-58
2022/06/30 11:39:17;;;;;;;9.52;1.90;;;17.60;99.90;;;;;;5093618;28;20031;-58
2022/06/30 11:41:57;;;;;;;6.75;1.95;;;17.40;99.90;;;;;;5091375;28;20040;-58
2022/06/30 11:44:38;;;;;;;5.55;1.77;;;17.40;99.90;;;;;;5095569;28;20127;-58
2022/06/30 11:47:05;;;;;;;7.05;1.85;;;17.40;99.90;;;;;;5091934;28;20453;-58
2022/06/30 11:49:44;;;;;;;5.22;1.38;;;17.50;99.90;;;;;;5093349;28;20512;-59
2022/06/30 11:52:21;;;;;;;3.67;1.30;;;17.40;99.90;;;;;;5093261;28;20088;-58
2022/06/30 11:54:47;;;;;;;5.93;1.40;;;17.50;99.90;;;;;;5093189;28;20031;-59
2022/06/30 11:57:13;;;;;;;4.25;1.40;;;17.40;99.90;;;;;;5093329;28;20046;-58
2022/06/30 11:59:46;;;;;;;6.18;1.65;;;17.40;99.90;;;;;;5095182;28;20081;-58
2022/06/30 12:02:12;;;;;;;7.57;1.98;;;17.20;99.90;;;;;;5094008;28;20036;-58
2022/06/30 12:04:41;;;;;;;6.13;2.65;;;16.90;99.90;;;;;;5091326;28;20070;-58
2022/06/30 12:07:08;;;;;;;6.88;2.25;;;17.10;99.90;;;;;;5092858;28;20084;-59
2022/06/30 12:09:35;;;;;;;4.32;1.42;;;17.10;99.90;;;;;;5091785;28;20035;-58
2022/06/30 12:12:03;;;;;;;4.45;1.38;;;17.20;99.90;;;;;;5093368;28;20059;-58
2022/06/30 12:14:32;;;;;;;3.05;1.25;;;17.30;99.90;;;;;;5094855;28;20107;-58
2022/06/30 12:16:58;;;;;;;7.78;1.70;;;17.10;99.90;;;;;;5092437;28;20035;-58
2022/06/30 12:19:25;;;;;;;4.07;1.40;;;17.20;99.90;;;;;;5092818;28;20392;-58
2022/06/30 12:21:53;;;;;;;3.83;1.30;;;17.20;99.90;;;;;;5093168;28;20023;-58
2022/06/30 12:24:19;;;;;;;2.92;1.10;;;17.20;99.90;;;;;;5092663;28;20119;-58
2022/06/30 12:26:53;;;;;;;6.38;1.20;;;17.10;99.90;;;;;;5094033;28;20036;-58
2022/06/30 12:29:23;;;;;;;3.00;1.10;;;17.40;99.90;;;;;;5092958;28;20382;-58
2022/06/30 12:32:04;;;;;;;5.25;1.15;;;17.80;99.90;;;;;;5092144;28;20032;-58
2022/06/30 12:34:32;;;;;;;2.42;1.20;;;18.20;99.90;;;;;;5092429;28;20164;-59
2022/06/30 12:37:03;;;;;;;2.90;0.90;;;17.90;99.90;;;;;;5092292;28;20122;-58
2022/06/30 12:39:31;;;;;;;3.63;1.05;;;17.70;99.90;;;;;;5089805;28;20035;-58
2022/06/30 12:42:02;;;;;;;4.07;1.30;;;17.90;99.90;;;;;;5092886;28;20093;-58
2022/06/30 12:44:36;;;;;;;3.20;1.00;;;18.00;99.90;;;;;;5093095;28;20447;-58
2022/06/30 12:47:10;;;;;;;4.00;1.02;;;18.20;99.90;;;;;;5090710;28;20121;-58
2022/06/30 12:49:37;;;;;;;3.80;1.30;;;18.70;99.90;;;;;;5091815;28;20032;-58
2022/06/30 12:52:18;;;;;;;2.83;1.20;;;18.70;99.90;;;;;;5092248;28;20392;-58
2022/06/30 12:54:51;;;;;;;3.75;1.27;;;18.80;99.90;;;;;;5092102;28;20055;-58
2022/06/30 12:57:18;;;;;;;3.13;1.08;;;18.90;99.90;;;;;;5091999;28;20098;-58
2022/06/30 12:59:50;;;;;;;3.97;1.13;;;18.90;99.90;;;;;;5093119;28;20070;-58
2022/06/30 13:02:17;;;;;;;5.25;1.10;;;19.00;99.90;;;;;;5093670;28;20036;-58